Time;durP1;ratioP1;P1;durP2;ratioP2;P2;SDS_P1;SDS_P2;PMS_P1;PMS_P2;Temp;Humidity;BMP_temperature;BMP_pressure;BME280_temperature;BME280_humidity;BME280_pressure;Samples;Min_cycle;Max_cycle;Signal;HPM_P1;HPM_P2
2023/06/05 00:01:36;;;;;;;11.87;9.40;;;;;;;10.02;100.00;102394.22;5037351;28;20440;-42
2023/06/05 00:04:06;;;;;;;8.90;8.20;;;;;;;10.01;100.00;102394.34;5017380;28;20468;-42
2023/06/05 00:06:34;;;;;;;11.67;8.60;;;;;;;9.99;100.00;102396.34;5036661;28;20476;-43
2023/06/05 00:09:02;;;;;;;10.33;9.43;;;;;;;9.97;100.00;102390.34;5036446;28;20432;-44
2023/06/05 00:11:30;;;;;;;9.80;9.00;;;;;;;9.99;100.00;102397.19;5036050;28;20490;-42
2023/06/05 00:13:58;;;;;;;11.90;10.73;;;;;;;9.94;100.00;102395.97;5010968;28;20498;-44
2023/06/05 00:16:26;;;;;;;9.87;8.87;;;;;;;9.91;100.00;102397.13;5035509;28;20432;-42
2023/06/05 00:18:54;;;;;;;10.23;9.37;;;;;;;9.93;100.00;102400.47;5035889;28;20427;-45
2023/06/05 00:21:25;;;;;;;11.37;8.27;;;;;;;9.96;100.00;102396.66;5036619;28;20502;-42
2023/06/05 00:23:52;;;;;;;10.17;9.27;;;;;;;9.92;100.00;102398.78;5036441;28;20409;-44
2023/06/05 00:26:20;;;;;;;9.90;8.13;;;;;;;9.92;100.00;102400.59;5010850;28;20515;-45
2023/06/05 00:28:48;;;;;;;10.70;9.60;;;;;;;9.88;100.00;102397.44;5031284;28;20486;-41
2023/06/05 00:31:17;;;;;;;10.57;8.93;;;;;;;9.90;100.00;102397.25;5037513;28;20420;-45
2023/06/05 00:33:44;;;;;;;9.30;8.50;;;;;;;9.93;100.00;102404.94;5036623;28;20436;-42
2023/06/05 00:36:12;;;;;;;10.47;9.43;;;;;;;9.93;100.00;102399.63;5010809;28;20452;-43
2023/06/05 00:38:42;;;;;;;11.40;9.27;;;;;;;9.87;100.00;102400.22;5036212;28;20482;-46
2023/06/05 00:41:10;;;;;;;11.13;9.20;;;;;;;9.82;100.00;102397.19;5018629;28;20433;-44
2023/06/05 00:43:38;;;;;;;12.50;9.73;;;;;;;9.81;100.00;102403.50;5016958;28;20441;-41
2023/06/05 00:46:07;;;;;;;12.37;10.30;;;;;;;9.79;100.00;102408.16;4990148;28;20492;-45
2023/06/05 00:48:35;;;;;;;10.60;9.50;;;;;;;9.77;100.00;102404.78;5017277;28;20572;-41
2023/06/05 00:51:04;;;;;;;11.27;10.00;;;;;;;9.72;100.00;102401.72;5016390;28;20850;-43
2023/06/05 00:53:35;;;;;;;16.27;10.77;;;;;;;9.71;100.00;102397.38;5015393;28;20455;-41
2023/06/05 00:56:06;;;;;;;12.50;10.67;;;;;;;9.69;100.00;102396.72;4991660;28;20456;-43
2023/06/05 00:58:33;;;;;;;10.10;9.20;;;;;;;9.68;100.00;102395.03;5017111;28;20456;-42
2023/06/05 01:01:04;;;;;;;13.37;10.63;;;;;;;9.65;100.00;102409.47;5017923;28;20839;-42
2023/06/05 01:03:33;;;;;;;11.57;9.50;;;;;;;9.67;100.00;102404.03;5016895;28;20475;-42
2023/06/05 01:06:03;;;;;;;10.03;9.23;;;;;;;9.65;100.00;102395.31;5016996;28;20439;-41
2023/06/05 01:08:38;;;;;;;10.50;9.70;;;;;;;9.62;100.00;102396.47;4999235;28;20495;-42
2023/06/05 01:11:14;;;;;;;11.80;10.47;;;;;;;9.59;100.00;102393.28;5016908;28;20425;-42
2023/06/05 01:13:50;;;;;;;12.00;10.50;;;;;;;9.55;100.00;102394.56;5016517;28;20444;-44
2023/06/05 01:16:18;;;;;;;10.67;9.07;;;;;;;9.48;100.00;102383.66;5016994;28;20487;-41
2023/06/05 01:18:46;;;;;;;10.67;9.07;;;;;;;9.51;100.00;102398.50;4992991;28;20465;-43
2023/06/05 01:21:14;;;;;;;12.10;9.27;;;;;;;9.48;100.00;102390.81;5016480;28;20433;-46
2023/06/05 01:23:44;;;;;;;10.30;9.23;;;;;;;9.43;100.00;102385.94;5016777;28;20491;-41
2023/06/05 01:26:19;;;;;;;11.70;9.53;;;;;;;9.39;100.00;102385.41;5016543;28;20443;-43
2023/06/05 01:28:50;;;;;;;13.50;10.40;;;;;;;9.39;100.00;102385.41;5004772;28;20467;-42
2023/06/05 01:31:22;;;;;;;12.57;11.10;;;;;;;9.37;100.00;102379.41;5038283;28;20428;-41
2023/06/05 01:33:56;;;;;;;11.80;10.60;;;;;;;9.35;100.00;102380.50;5040176;28;20436;-44
2023/06/05 01:36:25;;;;;;;11.33;9.70;;;;;;;9.38;100.00;102382.88;5040912;28;20478;-44
2023/06/05 01:38:55;;;;;;;13.50;10.87;;;;;;;9.36;100.00;102383.03;5014763;28;20466;-43
2023/06/05 01:41:26;;;;;;;13.70;10.57;;;;;;;9.33;100.00;102380.66;5040174;28;20432;-44
2023/06/05 01:43:54;;;;;;;16.13;11.13;;;;;;;9.36;100.00;102379.53;5040325;28;20482;-43
2023/06/05 01:46:23;;;;;;;12.53;11.10;;;;;;;9.32;100.00;102378.97;5039466;28;20482;-43
2023/06/05 01:48:54;;;;;;;14.87;11.07;;;;;;;9.26;100.00;102374.25;5014720;28;20499;-41
2023/06/05 01:51:22;;;;;;;13.27;11.10;;;;;;;9.27;100.00;102377.75;5040115;28;20798;-43
2023/06/05 01:53:50;;;;;;;12.30;10.63;;;;;;;9.23;100.00;102373.72;5039887;28;20448;-42
2023/06/05 01:56:20;;;;;;;14.17;11.03;;;;;;;9.23;100.00;102368.38;5040806;28;21002;-46
2023/06/05 01:58:48;;;;;;;18.07;11.40;;;;;;;9.21;100.00;102368.53;5040165;28;20427;-44
2023/06/05 02:01:17;;;;;;;14.03;11.70;;;;;;;9.20;100.00;102369.53;5020535;28;20551;-42
2023/06/05 02:03:47;;;;;;;11.63;10.43;;;;;;;9.25;100.00;102369.09;5038880;28;20427;-45
2023/06/05 02:06:16;;;;;;;14.40;12.03;;;;;;;9.26;100.00;102368.09;5039131;28;20681;-45
2023/06/05 02:08:44;;;;;;;12.43;10.63;;;;;;;9.28;100.00;102366.97;5040059;28;20471;-47
2023/06/05 02:11:11;;;;;;;15.53;10.13;;;;;;;9.32;100.00;102371.00;5014041;28;20818;-42
2023/06/05 02:13:41;;;;;;;11.23;10.20;;;;;;;9.29;100.00;102368.63;5039161;28;20463;-41
2023/06/05 02:16:10;;;;;;;14.23;11.50;;;;;;;9.30;100.00;102370.31;5039611;28;20439;-41
2023/06/05 02:18:38;;;;;;;13.10;10.27;;;;;;;9.29;100.00;102367.78;5039803;28;20786;-47
2023/06/05 02:21:06;;;;;;;13.63;11.30;;;;;;;9.27;100.00;102370.63;5014090;28;20459;-43
2023/06/05 02:23:34;;;;;;;12.70;10.90;;;;;;;9.30;100.00;102367.66;5038964;28;20489;-45
2023/06/05 02:26:02;;;;;;;10.93;10.13;;;;;;;9.31;100.00;102365.84;5039626;28;20456;-42
2023/06/05 02:28:30;;;;;;;11.50;10.20;;;;;;;9.30;100.00;102370.31;5039476;28;20483;-41
2023/06/05 02:30:59;;;;;;;15.13;12.03;;;;;;;9.33;100.00;102364.69;5013719;28;20463;-42
2023/06/05 02:33:27;;;;;;;13.23;10.67;;;;;;;9.30;100.00;102362.34;5039611;28;20519;-41
2023/06/05 02:35:56;;;;;;;16.87;11.10;;;;;;;9.22;100.00;102362.25;5039278;28;20445;-42
2023/06/05 02:38:23;;;;;;;14.43;11.03;;;;;;;9.22;100.00;102356.09;5039005;28;20871;-42
2023/06/05 02:40:51;;;;;;;12.43;11.20;;;;;;;9.19;100.00;102362.53;5020654;28;20447;-43
2023/06/05 02:43:21;;;;;;;20.83;12.00;;;;;;;9.15;100.00;102355.81;5038869;28;20432;-43
2023/06/05 02:45:49;;;;;;;12.37;11.17;;;;;;;9.14;100.00;102356.81;5038860;28;20432;-42
2023/06/05 02:48:18;;;;;;;14.63;11.10;;;;;;;9.13;100.00;102356.97;5039040;28;20533;-42
2023/06/05 02:50:46;;;;;;;14.00;11.30;;;;;;;9.14;100.00;102354.13;5038659;28;20428;-42
2023/06/05 02:53:15;;;;;;;15.43;10.47;;;;;;;9.14;100.00;102364.78;5013221;28;20486;-43
2023/06/05 02:55:43;;;;;;;13.20;11.90;;;;;;;9.10;100.00;102365.25;5038598;28;20428;-47
2023/06/05 02:58:12;;;;;;;12.33;10.90;;;;;;;9.13;100.00;102367.63;5037883;28;20467;-44
2023/06/05 03:00:41;;;;;;;11.77;10.50;;;;;;;9.16;100.00;102367.31;5037307;28;20431;-41
2023/06/05 03:03:10;;;;;;;11.77;10.50;;;;;;;9.16;100.00;102369.97;5012869;28;20460;-43
2023/06/05 03:05:40;;;;;;;12.10;11.10;;;;;;;9.13;100.00;102365.78;5038090;28;20486;-41
2023/06/05 03:08:08;;;;;;;14.20;11.00;;;;;;;9.19;100.00;102359.88;5038175;28;20981;-43
2023/06/05 03:10:36;;;;;;;11.90;10.93;;;;;;;9.22;100.00;102362.25;5037584;28;20436;-44
2023/06/05 03:13:04;;;;;;;12.77;10.90;;;;;;;9.30;100.00;102359.66;5012991;28;21140;-43
2023/06/05 03:15:32;;;;;;;11.70;10.50;;;;;;;9.40;100.00;102360.47;5037011;28;20463;-41
2023/06/05 03:17:59;;;;;;;12.97;11.77;;;;;;;9.47;100.00;102359.88;5037965;28;20529;-43
2023/06/05 03:20:27;;;;;;;14.00;11.17;;;;;;;9.52;100.00;102357.56;5037439;28;20450;-43
2023/06/05 03:22:56;;;;;;;12.70;10.60;;;;;;;9.58;100.00;102363.16;5012124;28;20460;-41
2023/06/05 03:25:24;;;;;;;13.67;10.77;;;;;;;9.86;100.00;102366.56;5038074;28;20973;-45
2023/06/05 03:27:52;;;;;;;14.30;11.20;;;;;;;10.09;100.00;102361.63;5033681;28;20504;-41
2023/06/05 03:30:20;;;;;;;14.17;11.50;;;;;;;10.20;100.00;102361.41;5038517;28;20921;-41
2023/06/05 03:32:48;;;;;;;14.90;11.70;;;;;;;10.19;100.00;102354.38;5012852;28;20461;-44
2023/06/05 03:35:17;;;;;;;13.53;11.03;;;;;;;10.16;100.00;102357.34;5037933;28;20432;-42
2023/06/05 03:37:44;;;;;;;12.37;11.33;;;;;;;10.05;100.00;102358.41;5038372;28;20455;-43
2023/06/05 03:40:14;;;;;;;11.37;10.37;;;;;;;10.06;100.00;102359.25;5038382;28;20968;-41
2023/06/05 03:42:41;;;;;;;13.23;11.60;;;;;;;10.08;100.00;102355.44;5037228;28;20428;-46
2023/06/05 03:45:10;;;;;;;12.40;11.30;;;;;;;10.06;100.00;102354.78;5009251;28;20433;-46
2023/06/05 03:47:38;;;;;;;11.27;10.27;;;;;;;10.10;100.00;102347.28;5038261;28;20529;-44
2023/06/05 03:50:06;;;;;;;11.93;10.73;;;;;;;10.11;100.00;102348.97;5038239;28;20439;-42
2023/06/05 03:52:37;;;;;;;12.20;10.93;;;;;;;10.16;100.00;102352.88;5037080;28;20506;-42
2023/06/05 03:55:07;;;;;;;13.30;11.37;;;;;;;10.17;100.00;102349.22;5011669;28;20467;-42
2023/06/05 03:57:37;;;;;;;14.33;11.93;;;;;;;10.25;100.00;102361.75;5037425;28;20456;-44
2023/06/05 04:00:09;;;;;;;17.03;11.07;;;;;;;10.36;100.00;102364.19;5036500;28;20448;-41
2023/06/05 04:02:37;;;;;;;12.70;11.50;;;;;;;10.31;100.00;102358.47;5037857;28;20432;-42
2023/06/05 04:05:06;;;;;;;12.90;11.90;;;;;;;10.49;100.00;102365.44;5011771;28;20468;-41
2023/06/05 04:07:33;;;;;;;12.60;11.47;;;;;;;10.50;100.00;102369.81;5037614;28;20448;-44
2023/06/05 04:10:01;;;;;;;11.33;10.23;;;;;;;10.52;100.00;102373.13;5037451;28;20432;-44
2023/06/05 04:12:29;;;;;;;12.50;10.80;;;;;;;10.59;100.00;102369.84;5036503;28;20937;-42
2023/06/05 04:14:59;;;;;;;11.83;10.50;;;;;;;10.61;100.00;102363.34;5010831;28;20456;-41
2023/06/05 04:17:27;;;;;;;13.17;9.83;;;;;;;10.73;100.00;102372.78;5036247;28;20464;-42
2023/06/05 04:19:54;;;;;;;11.37;10.47;;;;;;;10.85;100.00;102368.00;5037444;28;20428;-45
2023/06/05 04:22:22;;;;;;;13.33;10.90;;;;;;;10.84;100.00;102366.34;5036475;28;20436;-42
2023/06/05 04:24:50;;;;;;;13.23;11.83;;;;;;;11.01;100.00;102368.09;5010902;28;20488;-43
2023/06/05 04:27:18;;;;;;;12.10;11.00;;;;;;;11.91;100.00;102370.88;5032447;28;20544;-41
2023/06/05 04:29:46;;;;;;;12.10;10.90;;;;;;;12.94;100.00;102356.69;5037154;28;20475;-47
2023/06/05 04:32:18;;;;;;;11.00;9.97;;;;;;;13.92;100.00;102354.34;5036808;28;20471;-42
2023/06/05 04:34:47;;;;;;;12.23;11.13;;;;;;;14.72;100.00;102339.34;5022713;28;20460;-43
2023/06/05 04:37:14;;;;;;;9.80;9.10;;;;;;;15.35;100.00;102334.16;5036236;28;21045;-42
2023/06/05 04:39:43;;;;;;;11.10;9.03;;;;;;;16.40;100.00;102342.44;5035842;28;20467;-45
2023/06/05 04:42:11;;;;;;;9.30;8.40;;;;;;;17.01;100.00;102332.69;5035351;28;20837;-44
2023/06/05 04:44:42;;;;;;;9.90;9.10;;;;;;;17.64;100.00;102336.88;5010484;28;20731;-42
2023/06/05 04:47:10;;;;;;;9.17;7.50;;;;;;;18.51;100.00;102334.03;5035968;28;20455;-44
2023/06/05 04:49:39;;;;;;;9.17;7.50;;;;;;;18.83;94.05;102335.81;5035253;28;20480;-45
2023/06/05 04:52:07;;;;;;;9.20;8.30;;;;;;;19.53;100.00;102325.97;5034921;28;20439;-44
2023/06/05 04:54:35;;;;;;;9.90;8.93;;;;;;;20.02;93.20;102331.44;5034443;28;20435;-47
2023/06/05 04:57:05;;;;;;;7.73;7.13;;;;;;;20.52;95.91;102329.56;5009436;28;20982;-46
2023/06/05 04:59:33;;;;;;;7.97;7.17;;;;;;;20.72;75.73;102330.19;5034710;28;20420;-45
2023/06/05 05:02:01;;;;;;;8.43;6.90;;;;;;;20.84;73.45;102339.25;5034928;28;20445;-45
2023/06/05 05:04:29;;;;;;;7.83;6.70;;;;;;;20.93;71.57;102337.06;5034934;28;20436;-43
2023/06/05 05:07:01;;;;;;;7.67;6.80;;;;;;;21.00;64.52;102332.38;5008996;28;20467;-43
2023/06/05 05:09:29;;;;;;;9.80;7.20;;;;;;;20.74;65.63;102330.78;5035627;28;20467;-43
2023/06/05 05:11:56;;;;;;;7.03;6.20;;;;;;;20.82;67.34;102335.91;5034510;28;20432;-43
2023/06/05 05:14:26;;;;;;;17.53;6.90;;;;;;;21.14;67.85;102327.66;5036074;28;20478;-43
2023/06/05 05:16:55;;;;;;;8.33;7.50;;;;;;;21.35;61.73;102333.44;5001040;28;20467;-43
2023/06/05 05:19:22;;;;;;;7.83;7.13;;;;;;;21.78;64.15;102325.06;5035301;28;20423;-45
2023/06/05 05:21:50;;;;;;;8.87;7.67;;;;;;;21.84;60.56;102331.44;5034412;28;20443;-43
2023/06/05 05:24:19;;;;;;;7.13;6.53;;;;;;;21.15;64.29;102330.13;5033914;28;20462;-45
2023/06/05 05:26:47;;;;;;;7.00;6.40;;;;;;;21.30;62.24;102335.97;5034433;28;20528;-44
2023/06/05 05:29:15;;;;;;;8.40;6.73;;;;;;;21.03;62.01;102341.97;5007638;28;20484;-45
2023/06/05 05:31:44;;;;;;;9.30;7.77;;;;;;;20.96;62.16;102334.72;5033660;28;20440;-46
2023/06/05 05:34:11;;;;;;;7.87;6.90;;;;;;;21.19;63.32;102335.94;5034320;28;20557;-43
2023/06/05 05:36:39;;;;;;;7.20;6.20;;;;;;;21.29;60.98;102333.50;5034244;28;20497;-46
2023/06/05 05:39:07;;;;;;;8.17;7.33;;;;;;;21.41;60.43;102337.91;5008973;28;20822;-43
2023/06/05 05:41:37;;;;;;;7.67;6.97;;;;;;;21.28;60.90;102339.97;5033925;28;21021;-42
2023/06/05 05:44:05;;;;;;;7.60;6.90;;;;;;;21.31;62.54;102332.22;5033501;28;20439;-43
2023/06/05 05:46:32;;;;;;;7.13;6.63;;;;;;;21.33;59.24;102327.38;5033885;28;20479;-43
2023/06/05 05:49:00;;;;;;;7.17;6.50;;;;;;;21.43;61.30;102335.81;5008310;28;20475;-43
2023/06/05 05:51:28;;;;;;;7.13;6.40;;;;;;;21.69;64.60;102340.03;5034310;28;20431;-44
2023/06/05 05:53:56;;;;;;;10.10;7.40;;;;;;;21.90;62.23;102339.53;5034353;28;20463;-43
2023/06/05 05:56:23;;;;;;;6.80;6.20;;;;;;;21.89;60.33;102339.78;5034287;28;20443;-43
2023/06/05 05:58:52;;;;;;;7.57;6.83;;;;;;;21.85;60.04;102333.09;5014003;28;20448;-43
2023/06/05 06:01:21;;;;;;;7.90;7.10;;;;;;;22.41;61.24;102330.72;5034301;28;20815;-46
2023/06/05 06:03:49;;;;;;;7.53;6.90;;;;;;;22.01;58.31;102324.31;5034377;28;20432;-46
2023/06/05 06:06:17;;;;;;;9.00;7.00;;;;;;;21.76;59.91;102338.06;5034058;28;20853;-44
2023/06/05 06:08:45;;;;;;;8.47;7.20;;;;;;;22.14;57.99;102337.66;5029399;28;20482;-43
2023/06/05 06:11:13;;;;;;;8.60;7.80;;;;;;;22.18;59.45;102333.44;5002075;28;20466;-44
2023/06/05 06:13:41;;;;;;;8.50;7.60;;;;;;;22.23;58.28;102335.44;5027749;28;20489;-44
2023/06/05 06:16:12;;;;;;;7.27;6.67;;;;;;;22.66;58.42;102340.56;4991526;28;1059975;-45
2023/06/05 06:18:40;;;;;;;8.80;7.33;;;;;;;21.99;58.08;102332.69;5032871;28;20211;-47
2023/06/05 06:21:08;;;;;;;7.93;7.23;;;;;;;22.64;56.55;102335.31;5019351;28;20541;-43
2023/06/05 06:23:36;;;;;;;7.60;6.97;;;;;;;22.81;55.62;102341.72;5031991;28;20427;-43
2023/06/05 06:26:06;;;;;;;8.27;7.50;;;;;;;22.80;57.35;102334.63;5031986;28;20439;-43
2023/06/05 06:28:34;;;;;;;10.57;8.50;;;;;;;22.41;60.85;102338.03;5032043;28;20570;-45
2023/06/05 06:31:02;;;;;;;7.93;6.70;;;;;;;22.66;57.38;102335.09;5006131;28;20997;-45
2023/06/05 06:33:32;;;;;;;7.80;7.03;;;;;;;23.04;54.82;102332.66;5031972;28;20522;-43
2023/06/05 06:36:00;;;;;;;8.13;7.33;;;;;;;22.95;54.06;102332.22;5031975;28;20842;-44
2023/06/05 06:38:30;;;;;;;7.90;7.00;;;;;;;23.13;55.56;102325.78;5032514;28;20451;-44
2023/06/05 06:40:58;;;;;;;10.00;6.47;;;;;;;23.26;55.31;102328.22;5017577;28;20424;-44
2023/06/05 06:43:26;;;;;;;7.93;7.17;;;;;;;22.96;54.48;102328.44;5031838;28;20439;-43
2023/06/05 06:45:54;;;;;;;8.17;6.27;;;;;;;23.46;54.01;102325.91;5032019;28;20428;-44
2023/06/05 06:48:22;;;;;;;9.60;6.93;;;;;;;23.41;52.94;102330.44;5031859;28;20471;-44
2023/06/05 06:50:52;;;;;;;7.40;6.80;;;;;;;23.86;51.26;102330.44;5019505;28;20498;-44
2023/06/05 06:53:19;;;;;;;7.57;6.17;;;;;;;24.46;50.53;102333.34;5031182;28;20443;-44
2023/06/05 06:55:47;;;;;;;6.33;5.97;;;;;;;24.45;50.74;102332.53;5031587;28;20432;-44
2023/06/05 06:58:15;;;;;;;8.43;7.10;;;;;;;24.37;50.29;102326.66;5031706;28;20455;-45
2023/06/05 07:00:42;;;;;;;7.50;6.90;;;;;;;24.60;50.76;102335.47;5031486;28;20435;-44
2023/06/05 07:03:10;;;;;;;8.97;6.93;;;;;;;25.25;51.54;102324.59;5008985;28;20498;-44
2023/06/05 07:05:39;;;;;;;7.40;6.70;;;;;;;25.40;47.52;102323.09;5032005;28;20438;-44
2023/06/05 07:08:08;;;;;;;7.57;6.80;;;;;;;25.54;50.60;102330.66;5032106;28;20456;-44
2023/06/05 07:10:35;;;;;;;7.10;6.40;;;;;;;25.61;46.61;102331.28;5031709;28;20506;-43
2023/06/05 07:13:03;;;;;;;9.07;6.00;;;;;;;26.19;47.75;102335.09;5004969;28;20460;-47
2023/06/05 07:15:31;;;;;;;10.07;6.70;;;;;;;25.83;47.35;102329.31;5031509;28;20828;-46
2023/06/05 07:17:59;;;;;;;6.90;6.43;;;;;;;26.26;46.62;102330.19;5031038;28;20463;-46
2023/06/05 07:20:26;;;;;;;7.07;6.37;;;;;;;26.65;48.88;102327.97;5031211;28;20432;-44
2023/06/05 07:22:54;;;;;;;8.33;7.40;;;;;;;27.19;45.81;102323.03;5030494;28;20197;-47
2023/06/05 07:25:24;;;;;;;8.90;5.97;;;;;;;27.41;47.17;102329.13;5005534;28;20467;-49
2023/06/05 07:27:52;;;;;;;6.87;6.27;;;;;;;27.47;45.66;102322.59;5025656;28;20452;-45
2023/06/05 07:30:20;;;;;;;9.00;7.13;;;;;;;26.79;44.05;102324.53;5030851;28;20471;-50
2023/06/05 07:32:48;;;;;;;8.47;7.17;;;;;;;26.91;46.33;102333.34;5030759;28;20254;-51
2023/06/05 07:35:16;;;;;;;6.90;6.30;;;;;;;26.91;44.29;102329.81;5017399;28;20221;-46
2023/06/05 07:37:44;;;;;;;7.03;6.33;;;;;;;27.64;45.87;102325.09;5030768;28;20217;-46
2023/06/05 07:40:11;;;;;;;7.20;6.60;;;;;;;27.77;44.89;102319.09;5031276;28;20427;-45
2023/06/05 07:42:41;;;;;;;7.67;6.90;;;;;;;27.73;44.08;102320.72;5030805;28;20201;-49
2023/06/05 07:45:09;;;;;;;6.87;6.33;;;;;;;27.65;40.97;102324.00;5005230;28;20521;-46
2023/06/05 07:47:37;;;;;;;7.10;5.90;;;;;;;26.79;41.76;102323.69;5030888;28;20232;-45
2023/06/05 07:50:06;;;;;;;7.53;6.80;;;;;;;26.63;44.77;102321.97;5030717;28;20212;-44
2023/06/05 07:52:34;;;;;;;6.93;6.47;;;;;;;26.64;46.05;102327.16;5030786;28;20200;-44
2023/06/05 07:55:02;;;;;;;10.50;6.00;;;;;;;26.46;45.30;102316.69;5008191;28;20452;-44
2023/06/05 07:57:30;;;;;;;8.07;7.27;;;;;;;26.61;42.50;102319.47;5029931;28;20247;-45
2023/06/05 07:59:59;;;;;;;6.87;6.23;;;;;;;26.54;43.66;102316.19;5030333;28;20451;-43
2023/06/05 08:02:27;;;;;;;10.80;6.47;;;;;;;26.19;43.80;102318.69;5030135;28;20436;-44
2023/06/05 08:04:55;;;;;;;6.97;6.10;;;;;;;25.70;44.62;102321.53;5030045;28;20834;-45
2023/06/05 08:07:22;;;;;;;8.53;6.80;;;;;;;25.52;45.36;102323.78;5004868;28;21024;-44
2023/06/05 08:09:50;;;;;;;7.60;6.50;;;;;;;25.37;46.04;102320.88;5029657;28;20514;-45
2023/06/05 08:12:18;;;;;;;10.70;7.43;;;;;;;24.84;46.96;102332.53;5030279;28;20663;-49
2023/06/05 08:14:46;;;;;;;7.50;6.80;;;;;;;24.49;47.12;102328.19;5029930;28;20435;-43
2023/06/05 08:17:15;;;;;;;8.17;7.60;;;;;;;24.20;47.10;102324.78;5004294;28;20522;-46
2023/06/05 08:19:43;;;;;;;6.00;5.50;;;;;;;24.01;47.98;102336.16;5029968;28;21138;-46
2023/06/05 08:22:12;;;;;;;8.17;7.27;;;;;;;22.85;50.68;102339.34;5029077;28;20436;-46
2023/06/05 08:24:39;;;;;;;16.67;8.53;;;;;;;22.63;52.57;102336.38;5029629;28;20408;-45
2023/06/05 08:27:07;;;;;;;9.53;7.33;;;;;;;22.76;51.94;102330.72;4999837;28;20567;-43
2023/06/05 08:29:36;;;;;;;8.57;7.60;;;;;;;22.68;52.62;102325.66;5028993;28;20424;-43
2023/06/05 08:32:05;;;;;;;11.13;7.07;;;;;;;22.76;54.15;102324.47;5029185;28;20475;-43
2023/06/05 08:34:35;;;;;;;8.80;7.27;;;;;;;22.83;53.99;102325.97;5029480;28;20427;-43
2023/06/05 08:37:03;;;;;;;10.83;7.33;;;;;;;22.15;56.45;102323.03;5003318;28;20514;-43
2023/06/05 08:39:33;;;;;;;7.90;7.10;;;;;;;22.57;57.06;102318.31;5029958;28;20432;-49
2023/06/05 08:42:03;;;;;;;12.77;8.40;;;;;;;22.46;55.84;102322.66;5029481;28;20535;-44
2023/06/05 08:44:32;;;;;;;8.13;7.43;;;;;;;22.88;55.83;102330.72;5029544;28;20462;-43
2023/06/05 08:47:03;;;;;;;7.70;7.10;;;;;;;23.17;54.10;102318.78;5014598;28;20818;-46
2023/06/05 08:49:36;;;;;;;7.43;6.83;;;;;;;23.48;53.49;102323.78;5029126;28;20913;-45
2023/06/05 08:52:08;;;;;;;7.47;6.80;;;;;;;23.40;53.55;102326.06;5028375;28;20500;-43
2023/06/05 08:54:38;;;;;;;10.80;7.57;;;;;;;23.34;52.38;102316.13;5029663;28;20518;-45
2023/06/05 08:57:06;;;;;;;9.23;8.43;;;;;;;23.44;51.62;102316.34;5029877;28;20456;-46
2023/06/05 08:59:34;;;;;;;8.30;7.07;;;;;;;22.76;53.68;102324.47;5004091;28;20525;-43
2023/06/05 09:02:02;;;;;;;7.53;6.93;;;;;;;22.58;53.53;102319.94;5029353;28;20509;-42
2023/06/05 09:04:31;;;;;;;8.40;7.63;;;;;;;22.25;55.96;102328.69;5029683;28;20848;-45
2023/06/05 09:06:59;;;;;;;9.23;8.30;;;;;;;21.90;57.46;102325.94;5029252;28;20455;-43
2023/06/05 09:09:28;;;;;;;8.37;7.67;;;;;;;22.09;56.91;102320.41;5017083;28;20822;-45
2023/06/05 09:12:04;;;;;;;10.47;8.27;;;;;;;22.11;57.79;102313.69;5029090;28;20529;-44
2023/06/05 09:14:32;;;;;;;8.10;7.30;;;;;;;21.69;59.68;102318.31;5029468;28;20435;-45
2023/06/05 09:17:01;;;;;;;9.37;8.10;;;;;;;21.44;62.06;102321.16;5028933;28;20499;-45
2023/06/05 09:19:37;;;;;;;9.43;8.10;;;;;;;21.26;62.21;102321.22;5003649;28;20471;-43
2023/06/05 09:22:06;;;;;;;10.20;7.80;;;;;;;21.18;65.63;102320.69;5028401;28;20940;-50
2023/06/05 09:24:36;;;;;;;8.70;7.87;;;;;;;21.43;61.51;102316.81;5028597;28;20435;-46
2023/06/05 09:27:05;;;;;;;9.50;7.83;;;;;;;21.63;60.13;102312.97;5028197;28;20491;-43
2023/06/05 09:29:35;;;;;;;9.20;8.30;;;;;;;21.38;62.72;102310.44;5003224;28;20522;-43
2023/06/05 09:32:06;;;;;;;10.43;8.90;;;;;;;21.38;62.42;102311.25;5028389;28;20474;-47
2023/06/05 09:34:35;;;;;;;10.40;9.30;;;;;;;21.31;62.44;102306.97;5029046;28;20423;-43
2023/06/05 09:37:05;;;;;;;9.30;8.47;;;;;;;21.52;62.47;102306.47;5028531;28;20462;-43
2023/06/05 09:39:34;;;;;;;11.30;9.10;;;;;;;21.70;62.71;102308.28;5001848;28;20467;-44
2023/06/05 09:42:04;;;;;;;9.90;9.17;;;;;;;21.65;62.59;102300.00;5028471;28;20439;-43
2023/06/05 09:44:34;;;;;;;9.27;8.30;;;;;;;21.62;61.63;102304.03;5028594;28;20522;-45
2023/06/05 09:47:05;;;;;;;11.13;8.80;;;;;;;21.44;64.79;102310.31;5029180;28;20513;-46
2023/06/05 09:49:46;;;;;;;8.77;7.90;;;;;;;21.90;63.58;102308.81;5003182;28;20471;-47
2023/06/05 09:52:15;;;;;;;8.67;7.80;;;;;;;21.89;61.35;102305.25;5031009;28;20471;-43
2023/06/05 09:54:45;;;;;;;8.27;7.40;;;;;;;22.06;61.91;102305.41;5032567;28;20478;-44
2023/06/05 09:57:16;;;;;;;8.20;7.33;;;;;;;22.36;60.65;102303.44;5031866;28;20456;-43
2023/06/05 09:59:50;;;;;;;8.93;8.03;;;;;;;22.75;57.87;102291.00;5018674;28;20980;-43
2023/06/05 10:02:20;;;;;;;8.73;7.80;;;;;;;22.81;58.54;102283.78;5032965;28;20522;-42
2023/06/05 10:04:50;;;;;;;7.43;6.70;;;;;;;22.97;58.88;102299.31;5031961;28;20427;-43
2023/06/05 10:07:18;;;;;;;9.50;7.27;;;;;;;22.65;58.72;102288.06;5032952;28;20889;-48
2023/06/05 10:09:50;;;;;;;7.97;7.20;;;;;;;22.29;57.87;102291.00;5032225;28;20526;-45
2023/06/05 10:12:20;;;;;;;8.40;7.60;;;;;;;22.04;59.44;102288.53;5005920;28;20495;-43
2023/06/05 10:14:49;;;;;;;8.43;7.47;;;;;;;21.88;59.63;102292.75;5032837;28;20996;-45
2023/06/05 10:17:17;;;;;;;8.23;7.73;;;;;;;21.94;60.08;102291.84;5032207;28;20467;-43
2023/06/05 10:19:45;;;;;;;8.33;7.50;;;;;;;21.92;61.65;102293.94;5032299;28;20467;-45
2023/06/05 10:22:14;;;;;;;7.17;6.67;;;;;;;21.83;61.19;102287.16;5005952;28;20980;-46
2023/06/05 10:24:46;;;;;;;7.80;7.00;;;;;;;21.76;63.02;102288.34;5032495;28;20427;-46
2023/06/05 10:27:46;;;;;;;8.73;7.70;;;;;;;21.60;64.16;102281.69;5027356;28;20448;-44
2023/06/05 10:30:42;;;;;;;9.30;7.63;;;;;;;21.76;64.77;102281.03;5028631;28;20435;-46
2023/06/05 10:33:26;;;;;;;8.67;7.60;;;;;;;21.63;63.86;102277.66;5019074;28;21072;-45
2023/06/05 10:36:04;;;;;;;8.10;7.50;;;;;;;21.63;64.31;102280.38;5031826;28;21007;-43
2023/06/05 10:38:34;;;;;;;8.03;7.37;;;;;;;22.01;62.79;102283.56;5031806;28;20545;-42
2023/06/05 10:41:04;;;;;;;9.67;8.63;;;;;;;22.11;60.94;102277.53;5006608;28;20423;-44
2023/06/05 10:43:33;;;;;;;8.30;7.57;;;;;;;22.53;60.54;102270.91;5031793;28;20438;-43
2023/06/05 10:46:23;;;;;;;8.80;8.03;;;;;;;22.65;58.00;102279.91;5032037;28;20431;-44
2023/06/05 10:49:08;;;;;;;9.30;8.10;;;;;;;23.01;54.58;102270.56;5031148;28;20464;-43
2023/06/05 10:51:39;;;;;;;7.63;6.60;;;;;;;23.18;54.40;102276.88;5007825;28;20468;-45
2023/06/05 10:54:08;;;;;;;7.47;6.77;;;;;;;23.22;53.30;102271.78;5030834;28;20439;-43
2023/06/05 10:57:01;;;;;;;7.47;6.90;;;;;;;23.29;51.76;102267.03;5030883;28;20456;-47
2023/06/05 10:59:30;;;;;;;9.00;6.80;;;;;;;22.90;51.84;102258.66;5031576;28;20984;-46
2023/06/05 11:02:24;;;;;;;12.50;8.10;;;;;;;23.03;52.64;102269.25;5031516;28;20428;-43
2023/06/05 11:05:07;;;;;;;7.43;6.93;;;;;;;23.18;50.72;102270.63;5004288;28;20449;-46
2023/06/05 11:07:35;;;;;;;7.23;6.67;;;;;;;23.53;52.51;102265.88;5031165;28;20444;-45
2023/06/05 11:10:06;;;;;;;7.30;6.60;;;;;;;23.79;50.38;102267.13;5030895;28;20523;-43
2023/06/05 11:12:59;;;;;;;8.00;7.10;;;;;;;23.65;50.96;102261.97;5031875;28;20470;-46
2023/06/05 11:15:43;;;;;;;8.43;7.40;;;;;;;23.51;48.93;102257.09;5018244;28;20848;-43
2023/06/05 11:18:35;;;;;;;7.13;6.43;;;;;;;23.52;51.89;102254.16;5030962;28;20830;-46
2023/06/05 11:21:03;;;;;;;8.20;6.57;;;;;;;23.34;50.54;102254.34;5031594;28;20771;-48
2023/06/05 11:23:31;;;;;;;7.23;6.63;;;;;;;23.32;49.98;102253.75;5005208;28;20644;-48
2023/06/05 11:26:38;;;;;;;9.60;5.90;;;;;;;23.06;49.37;102247.00;5031456;28;20435;-43
2023/06/05 11:29:13;;;;;;;7.43;6.10;;;;;;;23.13;49.89;102242.25;5025913;28;20524;-45